sensor_id;sensor_type;location;lat;lon;timestamp;P1;durP1;ratioP1;P2;durP2;ratioP2
58647;SDS011;45992;45.920;20.074;2022-11-25T00:02:17;28.07;;;17.57;;
58647;SDS011;45992;45.920;20.074;2022-11-25T00:04:44;29.00;;;18.52;;
58647;SDS011;45992;45.920;20.074;2022-11-25T00:07:10;34.90;;;19.73;;
58647;SDS011;45992;45.920;20.074;2022-11-25T00:09:36;30.00;;;18.60;;
58647;SDS011;45992;45.920;20.074;2022-11-25T00:12:02;33.57;;;19.13;;
58647;SDS011;45992;45.920;20.074;2022-11-25T00:14:31;30.15;;;18.38;;
58647;SDS011;45992;45.920;20.074;2022-11-25T00:16:57;32.47;;;19.50;;
58647;SDS011;45992;45.920;20.074;2022-11-25T00:19:23;31.02;;;20.35;;
58647;SDS011;45992;45.920;20.074;2022-11-25T00:21:49;32.17;;;20.50;;
58647;SDS011;45992;45.920;20.074;2022-11-25T00:24:15;31.55;;;20.42;;
58647;SDS011;45992;45.920;20.074;2022-11-25T00:26:41;29.65;;;19.27;;
58647;SDS011;45992;45.920;20.074;2022-11-25T00:29:09;29.70;;;18.70;;
58647;SDS011;45992;45.920;20.074;2022-11-25T00:31:36;29.00;;;17.75;;
58647;SDS011;45992;45.920;20.074;2022-11-25T00:34:03;25.33;;;16.30;;
58647;SDS011;45992;45.920;20.074;2022-11-25T00:38:59;34.38;;;19.77;;
58647;SDS011;45992;45.920;20.074;2022-11-25T00:41:25;36.78;;;20.63;;
58647;SDS011;45992;45.920;20.074;2022-11-25T00:44:12;37.42;;;20.05;;
58647;SDS011;45992;45.920;20.074;2022-11-25T00:46:57;30.40;;;17.88;;
58647;SDS011;45992;45.920;20.074;2022-11-25T00:49:23;30.20;;;19.42;;
58647;SDS011;45992;45.920;20.074;2022-11-25T00:51:49;29.50;;;17.53;;
58647;SDS011;45992;45.920;20.074;2022-11-25T00:54:16;30.95;;;18.35;;
58647;SDS011;45992;45.920;20.074;2022-11-25T00:56:42;26.52;;;16.83;;
58647;SDS011;45992;45.920;20.074;2022-11-25T00:59:08;30.30;;;18.47;;
58647;SDS011;45992;45.920;20.074;2022-11-25T01:01:34;26.13;;;16.98;;
58647;SDS011;45992;45.920;20.074;2022-11-25T01:04:00;29.65;;;17.30;;
58647;SDS011;45992;45.920;20.074;2022-11-25T01:06:26;31.97;;;18.73;;
58647;SDS011;45992;45.920;20.074;2022-11-25T01:08:53;31.20;;;18.50;;
58647;SDS011;45992;45.920;20.074;2022-11-25T01:11:19;29.43;;;18.23;;
58647;SDS011;45992;45.920;20.074;2022-11-25T01:16:13;28.58;;;16.85;;
58647;SDS011;45992;45.920;20.074;2022-11-25T01:18:40;28.42;;;17.70;;
58647;SDS011;45992;45.920;20.074;2022-11-25T01:23:32;35.73;;;20.43;;
58647;SDS011;45992;45.920;20.074;2022-11-25T01:26:01;35.50;;;19.97;;
58647;SDS011;45992;45.920;20.074;2022-11-25T01:28:28;34.97;;;20.48;;
58647;SDS011;45992;45.920;20.074;2022-11-25T01:31:04;41.40;;;20.93;;
58647;SDS011;45992;45.920;20.074;2022-11-25T01:33:30;50.80;;;26.08;;
58647;SDS011;45992;45.920;20.074;2022-11-25T01:36:00;50.60;;;26.75;;
58647;SDS011;45992;45.920;20.074;2022-11-25T01:38:26;50.03;;;29.27;;
58647;SDS011;45992;45.920;20.074;2022-11-25T01:40:52;46.63;;;27.87;;
58647;SDS011;45992;45.920;20.074;2022-11-25T01:43:19;49.30;;;27.00;;
58647;SDS011;45992;45.920;20.074;2022-11-25T01:45:45;43.28;;;24.58;;
58647;SDS011;45992;45.920;20.074;2022-11-25T01:50:55;43.28;;;28.88;;
58647;SDS011;45992;45.920;20.074;2022-11-25T01:53:21;43.57;;;26.77;;
58647;SDS011;45992;45.920;20.074;2022-11-25T01:55:49;42.53;;;25.90;;
58647;SDS011;45992;45.920;20.074;2022-11-25T01:58:17;39.67;;;25.30;;
58647;SDS011;45992;45.920;20.074;2022-11-25T02:00:44;38.20;;;23.92;;
58647;SDS011;45992;45.920;20.074;2022-11-25T02:03:16;36.88;;;23.23;;
58647;SDS011;45992;45.920;20.074;2022-11-25T02:05:48;38.20;;;22.30;;
58647;SDS011;45992;45.920;20.074;2022-11-25T02:08:15;31.67;;;21.42;;
58647;SDS011;45992;45.920;20.074;2022-11-25T02:10:41;34.65;;;21.75;;
58647;SDS011;45992;45.920;20.074;2022-11-25T02:13:08;35.58;;;21.55;;
58647;SDS011;45992;45.920;20.074;2022-11-25T02:15:35;34.22;;;20.92;;
58647;SDS011;45992;45.920;20.074;2022-11-25T02:18:01;29.63;;;19.33;;
58647;SDS011;45992;45.920;20.074;2022-11-25T02:20:27;35.13;;;21.30;;
58647;SDS011;45992;45.920;20.074;2022-11-25T02:25:30;33.15;;;21.83;;
58647;SDS011;45992;45.920;20.074;2022-11-25T02:28:10;34.85;;;20.42;;
58647;SDS011;45992;45.920;20.074;2022-11-25T02:30:37;33.90;;;19.33;;
58647;SDS011;45992;45.920;20.074;2022-11-25T02:33:03;28.10;;;18.70;;
58647;SDS011;45992;45.920;20.074;2022-11-25T02:35:33;35.80;;;18.70;;
58647;SDS011;45992;45.920;20.074;2022-11-25T02:38:06;37.05;;;19.88;;
58647;SDS011;45992;45.920;20.074;2022-11-25T02:40:33;34.83;;;19.40;;
58647;SDS011;45992;45.920;20.074;2022-11-25T02:43:01;30.83;;;19.17;;
58647;SDS011;45992;45.920;20.074;2022-11-25T02:45:30;29.00;;;17.90;;
58647;SDS011;45992;45.920;20.074;2022-11-25T02:47:58;28.65;;;16.13;;
58647;SDS011;45992;45.920;20.074;2022-11-25T02:50:24;31.83;;;18.27;;
58647;SDS011;45992;45.920;20.074;2022-11-25T02:52:50;28.83;;;17.97;;
58647;SDS011;45992;45.920;20.074;2022-11-25T02:55:16;29.10;;;17.55;;
58647;SDS011;45992;45.920;20.074;2022-11-25T02:57:42;29.60;;;17.37;;
58647;SDS011;45992;45.920;20.074;2022-11-25T03:00:08;31.52;;;17.77;;
58647;SDS011;45992;45.920;20.074;2022-11-25T03:02:34;27.75;;;16.92;;
58647;SDS011;45992;45.920;20.074;2022-11-25T03:05:00;29.13;;;16.60;;
58647;SDS011;45992;45.920;20.074;2022-11-25T03:07:26;31.20;;;17.07;;
58647;SDS011;45992;45.920;20.074;2022-11-25T03:09:52;30.48;;;17.70;;
58647;SDS011;45992;45.920;20.074;2022-11-25T03:12:18;33.42;;;17.70;;
58647;SDS011;45992;45.920;20.074;2022-11-25T03:14:45;29.95;;;17.25;;
58647;SDS011;45992;45.920;20.074;2022-11-25T03:17:11;28.52;;;16.70;;
58647;SDS011;45992;45.920;20.074;2022-11-25T03:19:38;24.53;;;16.47;;
58647;SDS011;45992;45.920;20.074;2022-11-25T03:22:04;33.63;;;19.73;;
58647;SDS011;45992;45.920;20.074;2022-11-25T03:24:30;45.03;;;25.20;;
58647;SDS011;45992;45.920;20.074;2022-11-25T03:29:22;67.88;;;31.50;;
58647;SDS011;45992;45.920;20.074;2022-11-25T03:31:48;68.97;;;34.13;;
58647;SDS011;45992;45.920;20.074;2022-11-25T03:34:14;57.05;;;27.77;;
58647;SDS011;45992;45.920;20.074;2022-11-25T03:36:40;54.22;;;27.73;;
58647;SDS011;45992;45.920;20.074;2022-11-25T03:39:06;50.00;;;24.80;;
58647;SDS011;45992;45.920;20.074;2022-11-25T03:41:33;48.95;;;26.63;;
58647;SDS011;45992;45.920;20.074;2022-11-25T03:43:59;48.60;;;29.20;;
58647;SDS011;45992;45.920;20.074;2022-11-25T03:46:27;55.92;;;30.65;;
58647;SDS011;45992;45.920;20.074;2022-11-25T03:48:54;48.80;;;29.07;;
58647;SDS011;45992;45.920;20.074;2022-11-25T03:51:20;46.50;;;26.20;;
58647;SDS011;45992;45.920;20.074;2022-11-25T03:53:46;40.33;;;23.80;;
58647;SDS011;45992;45.920;20.074;2022-11-25T03:56:12;40.27;;;23.50;;
58647;SDS011;45992;45.920;20.074;2022-11-25T03:58:38;43.25;;;24.70;;
58647;SDS011;45992;45.920;20.074;2022-11-25T04:01:04;40.50;;;26.23;;
58647;SDS011;45992;45.920;20.074;2022-11-25T04:03:30;37.53;;;24.03;;
58647;SDS011;45992;45.920;20.074;2022-11-25T04:05:56;35.07;;;24.53;;
58647;SDS011;45992;45.920;20.074;2022-11-25T04:08:22;35.65;;;24.42;;
58647;SDS011;45992;45.920;20.074;2022-11-25T04:10:49;37.43;;;22.83;;
58647;SDS011;45992;45.920;20.074;2022-11-25T04:13:15;38.67;;;24.65;;
58647;SDS011;45992;45.920;20.074;2022-11-25T04:15:48;37.17;;;23.27;;
58647;SDS011;45992;45.920;20.074;2022-11-25T04:18:14;33.17;;;21.15;;
58647;SDS011;45992;45.920;20.074;2022-11-25T04:20:40;35.92;;;21.98;;
58647;SDS011;45992;45.920;20.074;2022-11-25T04:23:07;39.50;;;23.43;;
58647;SDS011;45992;45.920;20.074;2022-11-25T04:25:33;33.85;;;21.17;;
58647;SDS011;45992;45.920;20.074;2022-11-25T04:28:00;35.40;;;21.13;;
58647;SDS011;45992;45.920;20.074;2022-11-25T04:30:26;30.75;;;20.85;;
58647;SDS011;45992;45.920;20.074;2022-11-25T04:32:52;34.53;;;21.25;;
58647;SDS011;45992;45.920;20.074;2022-11-25T04:35:18;31.67;;;21.13;;
58647;SDS011;45992;45.920;20.074;2022-11-25T04:37:44;31.85;;;21.05;;
58647;SDS011;45992;45.920;20.074;2022-11-25T04:40:11;38.50;;;23.83;;
58647;SDS011;45992;45.920;20.074;2022-11-25T04:42:37;36.33;;;22.77;;
58647;SDS011;45992;45.920;20.074;2022-11-25T04:45:13;36.90;;;25.25;;
58647;SDS011;45992;45.920;20.074;2022-11-25T04:47:40;38.35;;;25.42;;
58647;SDS011;45992;45.920;20.074;2022-11-25T04:50:07;51.40;;;31.15;;
58647;SDS011;45992;45.920;20.074;2022-11-25T04:52:34;54.85;;;35.58;;
58647;SDS011;45992;45.920;20.074;2022-11-25T04:55:00;59.73;;;34.93;;
58647;SDS011;45992;45.920;20.074;2022-11-25T04:57:26;71.38;;;42.85;;
58647;SDS011;45992;45.920;20.074;2022-11-25T04:59:52;96.43;;;49.47;;
58647;SDS011;45992;45.920;20.074;2022-11-25T05:02:19;130.15;;;66.25;;
58647;SDS011;45992;45.920;20.074;2022-11-25T05:04:46;81.05;;;45.40;;
58647;SDS011;45992;45.920;20.074;2022-11-25T05:09:38;102.03;;;54.25;;
58647;SDS011;45992;45.920;20.074;2022-11-25T05:12:05;93.07;;;49.00;;
58647;SDS011;45992;45.920;20.074;2022-11-25T05:16:59;73.97;;;41.83;;
58647;SDS011;45992;45.920;20.074;2022-11-25T05:19:25;75.40;;;46.40;;
58647;SDS011;45992;45.920;20.074;2022-11-25T05:21:51;82.38;;;49.08;;
58647;SDS011;45992;45.920;20.074;2022-11-25T05:24:17;112.13;;;66.90;;
58647;SDS011;45992;45.920;20.074;2022-11-25T05:26:43;79.50;;;45.20;;
58647;SDS011;45992;45.920;20.074;2022-11-25T05:29:09;62.83;;;39.37;;
58647;SDS011;45992;45.920;20.074;2022-11-25T05:31:36;67.18;;;42.47;;
58647;SDS011;45992;45.920;20.074;2022-11-25T05:34:02;79.77;;;46.70;;
58647;SDS011;45992;45.920;20.074;2022-11-25T05:36:28;63.63;;;39.97;;
58647;SDS011;45992;45.920;20.074;2022-11-25T05:38:55;58.00;;;36.95;;
58647;SDS011;45992;45.920;20.074;2022-11-25T05:41:21;56.95;;;34.47;;
58647;SDS011;45992;45.920;20.074;2022-11-25T05:43:47;52.45;;;32.80;;
58647;SDS011;45992;45.920;20.074;2022-11-25T05:46:13;45.27;;;31.50;;
58647;SDS011;45992;45.920;20.074;2022-11-25T05:48:42;46.13;;;29.08;;
58647;SDS011;45992;45.920;20.074;2022-11-25T05:51:08;44.37;;;29.40;;
58647;SDS011;45992;45.920;20.074;2022-11-25T05:53:34;43.60;;;29.77;;
58647;SDS011;45992;45.920;20.074;2022-11-25T05:56:02;71.63;;;38.95;;
58647;SDS011;45992;45.920;20.074;2022-11-25T05:58:29;84.72;;;47.38;;
58647;SDS011;45992;45.920;20.074;2022-11-25T06:00:55;75.22;;;43.85;;
58647;SDS011;45992;45.920;20.074;2022-11-25T06:03:22;68.95;;;44.05;;
58647;SDS011;45992;45.920;20.074;2022-11-25T06:05:49;78.25;;;47.35;;
58647;SDS011;45992;45.920;20.074;2022-11-25T06:08:15;89.97;;;49.90;;
58647;SDS011;45992;45.920;20.074;2022-11-25T06:10:41;157.40;;;74.57;;
58647;SDS011;45992;45.920;20.074;2022-11-25T06:13:07;90.83;;;52.80;;
58647;SDS011;45992;45.920;20.074;2022-11-25T06:15:34;116.10;;;61.95;;
58647;SDS011;45992;45.920;20.074;2022-11-25T06:18:04;115.88;;;64.35;;
58647;SDS011;45992;45.920;20.074;2022-11-25T06:20:30;137.40;;;81.30;;
58647;SDS011;45992;45.920;20.074;2022-11-25T06:22:56;126.47;;;69.13;;
58647;SDS011;45992;45.920;20.074;2022-11-25T06:25:23;146.07;;;82.53;;
58647;SDS011;45992;45.920;20.074;2022-11-25T06:27:49;121.53;;;67.97;;
58647;SDS011;45992;45.920;20.074;2022-11-25T06:30:15;128.73;;;70.70;;
58647;SDS011;45992;45.920;20.074;2022-11-25T06:32:41;135.30;;;76.38;;
58647;SDS011;45992;45.920;20.074;2022-11-25T06:35:07;140.10;;;79.60;;
58647;SDS011;45992;45.920;20.074;2022-11-25T06:37:34;123.18;;;73.25;;
58647;SDS011;45992;45.920;20.074;2022-11-25T06:40:00;79.95;;;51.17;;
58647;SDS011;45992;45.920;20.074;2022-11-25T06:42:26;84.30;;;55.38;;
58647;SDS011;45992;45.920;20.074;2022-11-25T06:44:52;70.68;;;47.42;;
58647;SDS011;45992;45.920;20.074;2022-11-25T06:47:18;72.93;;;47.57;;
58647;SDS011;45992;45.920;20.074;2022-11-25T06:49:44;61.63;;;47.70;;
58647;SDS011;45992;45.920;20.074;2022-11-25T06:52:10;65.50;;;43.47;;
58647;SDS011;45992;45.920;20.074;2022-11-25T06:54:36;53.37;;;39.30;;
58647;SDS011;45992;45.920;20.074;2022-11-25T06:57:05;50.20;;;37.15;;
58647;SDS011;45992;45.920;20.074;2022-11-25T07:01:57;59.05;;;36.95;;
58647;SDS011;45992;45.920;20.074;2022-11-25T07:04:23;50.35;;;33.97;;
58647;SDS011;45992;45.920;20.074;2022-11-25T07:06:49;48.22;;;29.75;;
58647;SDS011;45992;45.920;20.074;2022-11-25T07:09:15;41.55;;;28.35;;
58647;SDS011;45992;45.920;20.074;2022-11-25T07:11:43;42.03;;;27.95;;
58647;SDS011;45992;45.920;20.074;2022-11-25T07:16:36;33.47;;;22.90;;
58647;SDS011;45992;45.920;20.074;2022-11-25T07:19:02;38.05;;;28.83;;
58647;SDS011;45992;45.920;20.074;2022-11-25T07:21:29;50.60;;;35.28;;
58647;SDS011;45992;45.920;20.074;2022-11-25T07:23:57;55.85;;;36.75;;
58647;SDS011;45992;45.920;20.074;2022-11-25T07:26:24;66.93;;;47.70;;
58647;SDS011;45992;45.920;20.074;2022-11-25T07:28:50;66.20;;;48.22;;
58647;SDS011;45992;45.920;20.074;2022-11-25T07:33:46;60.47;;;46.58;;
58647;SDS011;45992;45.920;20.074;2022-11-25T07:36:13;57.80;;;46.03;;
58647;SDS011;45992;45.920;20.074;2022-11-25T07:38:39;52.15;;;40.58;;
58647;SDS011;45992;45.920;20.074;2022-11-25T07:41:10;44.83;;;35.17;;
58647;SDS011;45992;45.920;20.074;2022-11-25T07:43:36;31.48;;;24.92;;
58647;SDS011;45992;45.920;20.074;2022-11-25T07:48:34;45.95;;;33.28;;
58647;SDS011;45992;45.920;20.074;2022-11-25T07:51:00;42.33;;;34.05;;
58647;SDS011;45992;45.920;20.074;2022-11-25T07:53:26;34.70;;;29.55;;
58647;SDS011;45992;45.920;20.074;2022-11-25T07:55:52;33.13;;;23.95;;
58647;SDS011;45992;45.920;20.074;2022-11-25T07:58:18;45.45;;;29.80;;
58647;SDS011;45992;45.920;20.074;2022-11-25T08:00:44;40.00;;;30.55;;
58647;SDS011;45992;45.920;20.074;2022-11-25T08:03:10;32.83;;;27.10;;
58647;SDS011;45992;45.920;20.074;2022-11-25T08:05:36;33.70;;;26.02;;
58647;SDS011;45992;45.920;20.074;2022-11-25T08:08:02;32.70;;;24.25;;
58647;SDS011;45992;45.920;20.074;2022-11-25T08:10:28;33.00;;;23.42;;
58647;SDS011;45992;45.920;20.074;2022-11-25T08:12:54;31.35;;;24.60;;
58647;SDS011;45992;45.920;20.074;2022-11-25T08:15:20;47.30;;;34.92;;
58647;SDS011;45992;45.920;20.074;2022-11-25T08:17:46;33.38;;;25.30;;
58647;SDS011;45992;45.920;20.074;2022-11-25T08:20:16;33.63;;;24.85;;
58647;SDS011;45992;45.920;20.074;2022-11-25T08:22:42;33.40;;;26.00;;
58647;SDS011;45992;45.920;20.074;2022-11-25T08:25:08;33.08;;;24.95;;
58647;SDS011;45992;45.920;20.074;2022-11-25T08:27:34;44.85;;;29.10;;
58647;SDS011;45992;45.920;20.074;2022-11-25T08:30:00;36.22;;;26.00;;
58647;SDS011;45992;45.920;20.074;2022-11-25T08:32:26;32.63;;;22.50;;
58647;SDS011;45992;45.920;20.074;2022-11-25T08:34:52;25.08;;;19.65;;
58647;SDS011;45992;45.920;20.074;2022-11-25T08:37:18;28.75;;;22.75;;
58647;SDS011;45992;45.920;20.074;2022-11-25T08:39:44;27.92;;;22.23;;
58647;SDS011;45992;45.920;20.074;2022-11-25T08:42:11;27.63;;;21.58;;
58647;SDS011;45992;45.920;20.074;2022-11-25T08:44:37;28.52;;;18.70;;
58647;SDS011;45992;45.920;20.074;2022-11-25T08:47:03;31.15;;;20.35;;
58647;SDS011;45992;45.920;20.074;2022-11-25T08:49:29;31.08;;;21.13;;
58647;SDS011;45992;45.920;20.074;2022-11-25T08:51:55;35.75;;;23.85;;
58647;SDS011;45992;45.920;20.074;2022-11-25T08:54:22;31.15;;;22.42;;
58647;SDS011;45992;45.920;20.074;2022-11-25T08:56:48;30.10;;;20.87;;
58647;SDS011;45992;45.920;20.074;2022-11-25T08:59:14;27.73;;;21.27;;
58647;SDS011;45992;45.920;20.074;2022-11-25T09:01:40;29.77;;;21.38;;
58647;SDS011;45992;45.920;20.074;2022-11-25T09:04:06;28.85;;;19.58;;
58647;SDS011;45992;45.920;20.074;2022-11-25T09:06:32;28.63;;;21.00;;
58647;SDS011;45992;45.920;20.074;2022-11-25T09:08:58;27.20;;;19.73;;
58647;SDS011;45992;45.920;20.074;2022-11-25T09:11:26;33.45;;;23.58;;
58647;SDS011;45992;45.920;20.074;2022-11-25T09:13:52;35.88;;;25.67;;
58647;SDS011;45992;45.920;20.074;2022-11-25T09:16:18;33.42;;;23.95;;
58647;SDS011;45992;45.920;20.074;2022-11-25T09:18:45;39.80;;;27.20;;
58647;SDS011;45992;45.920;20.074;2022-11-25T09:21:13;31.50;;;21.53;;
58647;SDS011;45992;45.920;20.074;2022-11-25T09:23:40;29.27;;;20.92;;
58647;SDS011;45992;45.920;20.074;2022-11-25T09:26:06;34.70;;;22.17;;
58647;SDS011;45992;45.920;20.074;2022-11-25T09:28:35;31.02;;;22.00;;
58647;SDS011;45992;45.920;20.074;2022-11-25T09:31:07;32.70;;;22.70;;
58647;SDS011;45992;45.920;20.074;2022-11-25T09:33:34;32.20;;;21.80;;
58647;SDS011;45992;45.920;20.074;2022-11-25T09:36:00;33.03;;;23.02;;
58647;SDS011;45992;45.920;20.074;2022-11-25T09:38:26;28.50;;;19.58;;
58647;SDS011;45992;45.920;20.074;2022-11-25T09:40:55;33.03;;;22.57;;
58647;SDS011;45992;45.920;20.074;2022-11-25T09:59:14;38.75;;;25.63;;
58647;SDS011;45992;45.920;20.074;2022-11-25T10:01:44;46.67;;;35.70;;
58647;SDS011;45992;45.920;20.074;2022-11-25T10:04:24;44.03;;;35.08;;
58647;SDS011;45992;45.920;20.074;2022-11-25T10:06:55;35.47;;;21.35;;
58647;SDS011;45992;45.920;20.074;2022-11-25T10:09:25;47.33;;;31.10;;
58647;SDS011;45992;45.920;20.074;2022-11-25T10:14:45;41.10;;;27.98;;
58647;SDS011;45992;45.920;20.074;2022-11-25T10:17:30;31.77;;;21.10;;
58647;SDS011;45992;45.920;20.074;2022-11-25T10:20:00;33.45;;;20.60;;
58647;SDS011;45992;45.920;20.074;2022-11-25T10:22:33;30.35;;;20.45;;
58647;SDS011;45992;45.920;20.074;2022-11-25T10:25:01;43.78;;;26.00;;
58647;SDS011;45992;45.920;20.074;2022-11-25T10:28:15;33.30;;;22.48;;
58647;SDS011;45992;45.920;20.074;2022-11-25T10:30:24;32.78;;;20.92;;
58647;SDS011;45992;45.920;20.074;2022-11-25T10:35:40;33.95;;;21.83;;
58647;SDS011;45992;45.920;20.074;2022-11-25T10:38:12;37.53;;;24.30;;
58647;SDS011;45992;45.920;20.074;2022-11-25T10:40:38;35.70;;;22.13;;
58647;SDS011;45992;45.920;20.074;2022-11-25T10:43:09;31.60;;;21.27;;
58647;SDS011;45992;45.920;20.074;2022-11-25T10:45:39;30.80;;;21.30;;
58647;SDS011;45992;45.920;20.074;2022-11-25T10:48:12;35.53;;;23.73;;
58647;SDS011;45992;45.920;20.074;2022-11-25T10:53:24;26.42;;;19.25;;
58647;SDS011;45992;45.920;20.074;2022-11-25T11:03:34;31.42;;;20.13;;
58647;SDS011;45992;45.920;20.074;2022-11-25T11:06:01;30.42;;;19.60;;
58647;SDS011;45992;45.920;20.074;2022-11-25T11:08:36;28.67;;;18.70;;
58647;SDS011;45992;45.920;20.074;2022-11-25T11:11:21;27.88;;;18.00;;
58647;SDS011;45992;45.920;20.074;2022-11-25T11:13:48;29.63;;;18.98;;
58647;SDS011;45992;45.920;20.074;2022-11-25T11:16:22;25.48;;;18.13;;
58647;SDS011;45992;45.920;20.074;2022-11-25T11:18:50;24.85;;;16.42;;
58647;SDS011;45992;45.920;20.074;2022-11-25T11:21:24;28.02;;;18.77;;
58647;SDS011;45992;45.920;20.074;2022-11-25T11:23:53;25.98;;;17.88;;
58647;SDS011;45992;45.920;20.074;2022-11-25T11:29:14;29.85;;;20.17;;
58647;SDS011;45992;45.920;20.074;2022-11-25T11:31:47;26.08;;;18.73;;
58647;SDS011;45992;45.920;20.074;2022-11-25T11:34:34;33.85;;;21.75;;
58647;SDS011;45992;45.920;20.074;2022-11-25T11:39:54;29.70;;;18.55;;
58647;SDS011;45992;45.920;20.074;2022-11-25T11:45:16;30.00;;;19.83;;
58647;SDS011;45992;45.920;20.074;2022-11-25T11:52:57;32.17;;;21.10;;
58647;SDS011;45992;45.920;20.074;2022-11-25T12:03:26;26.88;;;18.13;;
58647;SDS011;45992;45.920;20.074;2022-11-25T12:05:53;36.92;;;23.10;;
58647;SDS011;45992;45.920;20.074;2022-11-25T12:10:52;27.63;;;19.20;;
58647;SDS011;45992;45.920;20.074;2022-11-25T12:13:22;27.50;;;17.70;;
58647;SDS011;45992;45.920;20.074;2022-11-25T12:15:56;28.35;;;19.95;;
58647;SDS011;45992;45.920;20.074;2022-11-25T12:23:28;50.47;;;32.17;;
58647;SDS011;45992;45.920;20.074;2022-11-25T12:25:57;34.60;;;23.77;;
58647;SDS011;45992;45.920;20.074;2022-11-25T12:28:32;29.45;;;19.85;;
58647;SDS011;45992;45.920;20.074;2022-11-25T12:33:29;31.92;;;21.75;;
58647;SDS011;45992;45.920;20.074;2022-11-25T12:36:03;30.02;;;18.17;;
58647;SDS011;45992;45.920;20.074;2022-11-25T12:46:47;29.90;;;18.70;;
58647;SDS011;45992;45.920;20.074;2022-11-25T12:49:24;28.50;;;19.00;;
58647;SDS011;45992;45.920;20.074;2022-11-25T12:59:51;29.13;;;18.33;;
58647;SDS011;45992;45.920;20.074;2022-11-25T13:07:24;28.13;;;19.08;;
58647;SDS011;45992;45.920;20.074;2022-11-25T13:09:59;32.72;;;19.73;;
58647;SDS011;45992;45.920;20.074;2022-11-25T13:17:32;27.63;;;17.60;;
58647;SDS011;45992;45.920;20.074;2022-11-25T13:22:43;28.60;;;16.95;;
58647;SDS011;45992;45.920;20.074;2022-11-25T13:25:25;26.88;;;16.90;;
58647;SDS011;45992;45.920;20.074;2022-11-25T13:41:00;30.40;;;18.83;;
58647;SDS011;45992;45.920;20.074;2022-11-25T13:43:27;29.10;;;19.08;;
58647;SDS011;45992;45.920;20.074;2022-11-25T13:45:53;26.35;;;18.42;;
58647;SDS011;45992;45.920;20.074;2022-11-25T13:50:46;30.38;;;18.90;;
58647;SDS011;45992;45.920;20.074;2022-11-25T13:53:31;29.38;;;19.52;;
58647;SDS011;45992;45.920;20.074;2022-11-25T14:01:35;33.05;;;19.08;;
58647;SDS011;45992;45.920;20.074;2022-11-25T14:27:16;39.13;;;24.33;;
58647;SDS011;45992;45.920;20.074;2022-11-25T14:29:44;54.50;;;34.88;;
58647;SDS011;45992;45.920;20.074;2022-11-25T14:37:14;62.53;;;36.08;;
58647;SDS011;45992;45.920;20.074;2022-11-25T14:42:26;74.97;;;51.38;;
58647;SDS011;45992;45.920;20.074;2022-11-25T14:44:59;74.90;;;48.08;;
58647;SDS011;45992;45.920;20.074;2022-11-25T14:47:27;85.38;;;55.97;;
58647;SDS011;45992;45.920;20.074;2022-11-25T14:49:54;75.28;;;47.70;;
58647;SDS011;45992;45.920;20.074;2022-11-25T14:54:51;246.77;;;139.68;;
58647;SDS011;45992;45.920;20.074;2022-11-25T14:57:19;189.30;;;131.05;;
58647;SDS011;45992;45.920;20.074;2022-11-25T14:59:46;129.57;;;91.20;;
58647;SDS011;45992;45.920;20.074;2022-11-25T15:02:34;139.57;;;86.35;;
58647;SDS011;45992;45.920;20.074;2022-11-25T15:05:07;164.48;;;99.00;;
58647;SDS011;45992;45.920;20.074;2022-11-25T15:07:39;163.93;;;101.97;;
58647;SDS011;45992;45.920;20.074;2022-11-25T15:10:06;131.95;;;86.32;;
58647;SDS011;45992;45.920;20.074;2022-11-25T15:12:32;278.23;;;194.90;;
58647;SDS011;45992;45.920;20.074;2022-11-25T15:14:58;327.10;;;184.97;;
58647;SDS011;45992;45.920;20.074;2022-11-25T15:17:31;188.77;;;115.05;;
58647;SDS011;45992;45.920;20.074;2022-11-25T15:19:58;88.72;;;57.72;;
58647;SDS011;45992;45.920;20.074;2022-11-25T15:22:26;104.50;;;66.05;;
58647;SDS011;45992;45.920;20.074;2022-11-25T15:24:52;173.13;;;100.05;;
58647;SDS011;45992;45.920;20.074;2022-11-25T15:27:21;317.35;;;158.15;;
58647;SDS011;45992;45.920;20.074;2022-11-25T15:29:49;435.25;;;247.07;;
58647;SDS011;45992;45.920;20.074;2022-11-25T15:34:42;397.17;;;244.88;;
58647;SDS011;45992;45.920;20.074;2022-11-25T15:37:09;337.38;;;206.70;;
58647;SDS011;45992;45.920;20.074;2022-11-25T15:39:35;275.27;;;154.98;;
58647;SDS011;45992;45.920;20.074;2022-11-25T15:42:04;319.00;;;179.87;;
58647;SDS011;45992;45.920;20.074;2022-11-25T15:44:37;283.67;;;162.93;;
58647;SDS011;45992;45.920;20.074;2022-11-25T15:50:03;212.30;;;123.32;;
58647;SDS011;45992;45.920;20.074;2022-11-25T15:52:30;222.00;;;127.35;;
58647;SDS011;45992;45.920;20.074;2022-11-25T15:55:02;260.35;;;157.98;;
58647;SDS011;45992;45.920;20.074;2022-11-25T15:57:31;263.02;;;153.82;;
58647;SDS011;45992;45.920;20.074;2022-11-25T16:05:07;326.58;;;198.48;;
58647;SDS011;45992;45.920;20.074;2022-11-25T16:07:33;345.38;;;210.50;;
58647;SDS011;45992;45.920;20.074;2022-11-25T16:09:59;164.53;;;97.67;;
58647;SDS011;45992;45.920;20.074;2022-11-25T16:12:25;244.70;;;123.23;;
58647;SDS011;45992;45.920;20.074;2022-11-25T16:14:51;175.60;;;93.23;;
58647;SDS011;45992;45.920;20.074;2022-11-25T16:17:17;186.40;;;102.60;;
58647;SDS011;45992;45.920;20.074;2022-11-25T16:19:44;183.18;;;100.75;;
58647;SDS011;45992;45.920;20.074;2022-11-25T16:22:12;126.85;;;80.95;;
58647;SDS011;45992;45.920;20.074;2022-11-25T16:24:46;127.75;;;78.32;;
58647;SDS011;45992;45.920;20.074;2022-11-25T16:27:15;80.88;;;46.95;;
58647;SDS011;45992;45.920;20.074;2022-11-25T16:32:14;114.65;;;75.72;;
58647;SDS011;45992;45.920;20.074;2022-11-25T16:34:40;131.10;;;85.88;;
58647;SDS011;45992;45.920;20.074;2022-11-25T16:37:06;111.68;;;70.72;;
58647;SDS011;45992;45.920;20.074;2022-11-25T16:39:33;114.28;;;77.57;;
58647;SDS011;45992;45.920;20.074;2022-11-25T16:41:59;88.83;;;55.10;;
58647;SDS011;45992;45.920;20.074;2022-11-25T16:44:29;77.82;;;50.83;;
58647;SDS011;45992;45.920;20.074;2022-11-25T16:46:55;95.93;;;60.20;;
58647;SDS011;45992;45.920;20.074;2022-11-25T16:49:22;93.85;;;59.33;;
58647;SDS011;45992;45.920;20.074;2022-11-25T16:51:49;107.65;;;60.58;;
58647;SDS011;45992;45.920;20.074;2022-11-25T16:54:17;96.07;;;59.17;;
58647;SDS011;45992;45.920;20.074;2022-11-25T16:56:43;109.55;;;65.57;;
58647;SDS011;45992;45.920;20.074;2022-11-25T17:01:37;93.22;;;56.15;;
58647;SDS011;45992;45.920;20.074;2022-11-25T17:04:03;97.68;;;54.72;;
58647;SDS011;45992;45.920;20.074;2022-11-25T17:06:29;89.53;;;53.47;;
58647;SDS011;45992;45.920;20.074;2022-11-25T17:08:55;96.25;;;54.70;;
58647;SDS011;45992;45.920;20.074;2022-11-25T17:11:25;108.30;;;63.73;;
58647;SDS011;45992;45.920;20.074;2022-11-25T17:13:53;94.35;;;56.72;;
58647;SDS011;45992;45.920;20.074;2022-11-25T17:16:20;93.22;;;53.13;;
58647;SDS011;45992;45.920;20.074;2022-11-25T17:18:46;85.38;;;48.67;;
58647;SDS011;45992;45.920;20.074;2022-11-25T17:21:14;90.32;;;54.25;;
58647;SDS011;45992;45.920;20.074;2022-11-25T17:23:41;102.60;;;59.13;;